Time,TemperatureF,DewpointF,PressureIn,WindDirection,WindDirectionDegrees,WindSpeedMPH,WindSpeedGustMPH,Humidity,HourlyPrecipIn,Conditions,Clouds,dailyrainin,SolarRadiationWatts/m^2,SoftwareType,DateUTC
2013-01-15 00:02:00,40.2,22.1,30.40,SW,225,2.5,3.5,48,0.00,CLR,,0.00,0.0,WeatherDisplay:10.37,2013-01-15 08:02:00,
2013-01-15 00:07:00,40.2,21.6,30.40,SW,224,0.2,2.3,47,0.00,CLR,,0.00,0.0,WeatherDisplay:10.37,2013-01-15 08:07:00,
2013-01-15 00:12:00,40.3,21.6,30.40,SW,224,0.0,2.3,47,0.00,CLR,,0.00,0.0,WeatherDisplay:10.37,2013-01-15 08:12:00,
2013-01-15 00:17:00,40.7,22.0,30.40,SW,224,0.0,0.0,47,0.00,CLR,,0.00,0.0,WeatherDisplay:10.37,2013-01-15 08:17:00,
2013-01-15 00:22:00,41.0,22.3,30.40,SW,224,0.0,0.0,47,0.00,CLR,,0.00,0.0,WeatherDisplay:10.37,2013-01-15 08:22:00,
2013-01-15 00:27:00,41.0,22.8,30.40,SW,224,0.0,0.0,48,0.00,CLR,,0.00,0.0,WeatherDisplay:10.37,2013-01-15 08:27:00,
2013-01-15 00:32:00,40.9,22.7,30.40,SW,224,0.0,0.0,48,0.00,CLR,,0.00,0.0,WeatherDisplay:10.37,2013-01-15 08:32:00,
2013-01-15 00:37:00,40.7,23.0,30.41,SW,224,0.0,0.0,49,0.00,CLR,,0.00,0.0,WeatherDisplay:10.37,2013-01-15 08:37:00,
2013-01-15 00:42:00,40.7,23.0,30.41,SW,224,0.0,0.0,49,0.00,CLR,,0.00,0.0,WeatherDisplay:10.37,2013-01-15 08:42:00,
2013-01-15 00:47:00,40.7,23.0,30.41,SW,224,0.0,0.0,49,0.00,CLR,,0.00,0.0,WeatherDisplay:10.37,2013-01-15 08:47:00,
2013-01-15 00:52:00,40.7,23.0,30.41,SW,225,0.0,0.0,49,0.00,CLR,,0.00,0.0,WeatherDisplay:10.37,2013-01-15 08:52:00,
2013-01-15 00:57:00,40.8,23.1,30.40,SW,225,0.0,0.0,49,0.00,CLR,,0.00,0.0,WeatherDisplay:10.37,2013-01-15 08:57:00,
2013-01-15 01:02:00,40.9,23.7,30.40,SW,225,1.1,2.3,50,0.00,CLR,,0.00,0.0,WeatherDisplay:10.37,2013-01-15 09:02:00,
2013-01-15 01:07:00,40.7,23.5,30.40,SW,225,2.4,3.5,50,0.00,CLR,,0.00,0.0,WeatherDisplay:10.37,2013-01-15 09:07:00,
2013-01-15 01:12:00,40.6,23.4,30.39,SW,228,3.3,4.0,50,0.00,CLR,,0.00,0.0,WeatherDisplay:10.37,2013-01-15 09:12:00,
2013-01-15 01:17:00,40.6,22.9,30.39,SW,232,4.0,4.6,49,0.00,CLR,,0.00,0.0,WeatherDisplay:10.37,2013-01-15 09:17:00,
2013-01-15 01:22:00,40.6,22.9,30.39,WSW,249,4.2,5.8,49,0.00,CLR,,0.00,0.0,WeatherDisplay:10.37,2013-01-15 09:22:00,
2013-01-15 01:27:00,40.7,23.0,30.40,WSW,249,2.8,3.5,49,0.00,CLR,,0.00,0.0,WeatherDisplay:10.37,2013-01-15 09:27:00,
2013-01-15 01:32:00,40.7,22.5,30.40,WSW,249,1.7,2.3,48,0.00,CLR,,0.00,0.0,WeatherDisplay:10.37,2013-01-15 09:32:00,
2013-01-15 01:37:00,40.7,22.0,30.41,WSW,250,2.2,3.5,47,0.00,CLR,,0.00,0.0,WeatherDisplay:10.37,2013-01-15 09:37:00,
2013-01-15 01:42:00,40.5,21.3,30.41,WSW,250,1.8,2.3,46,0.00,CLR,,0.00,0.0,WeatherDisplay:10.37,2013-01-15 09:42:00,
2013-01-15 01:47:00,40.4,20.7,30.41,WSW,249,0.1,1.1,45,0.00,CLR,,0.00,0.0,WeatherDisplay:10.37,2013-01-15 09:47:00,
2013-01-15 01:52:00,40.4,20.7,30.41,WSW,249,0.0,0.0,45,0.00,CLR,,0.00,0.0,WeatherDisplay:10.37,2013-01-15 09:52:00,
2013-01-15 01:57:00,40.6,20.9,30.41,WSW,250,0.0,0.0,45,0.00,CLR,,0.00,0.0,WeatherDisplay:10.37,2013-01-15 09:57:00,
2013-01-15 02:02:00,41.0,21.3,30.41,WSW,250,0.0,0.0,45,0.00,CLR,,0.00,0.0,WeatherDisplay:10.37,2013-01-15 10:02:00,
2013-01-15 02:07:00,41.3,21.0,30.42,WSW,249,0.0,0.0,44,0.00,CLR,,0.00,0.0,WeatherDisplay:10.37,2013-01-15 10:07:00,
2013-01-15 02:12:00,41.7,21.4,30.42,WSW,249,1.9,2.3,44,0.00,CLR,,0.00,0.0,WeatherDisplay:10.37,2013-01-15 10:12:00,
2013-01-15 02:17:00,41.8,20.9,30.42,WSW,249,1.0,1.1,43,0.00,CLR,,0.00,0.0,WeatherDisplay:10.37,2013-01-15 10:17:00,
2013-01-15 02:22:00,41.8,20.9,30.42,WSW,249,0.0,0.0,43,0.00,CLR,,0.00,0.0,WeatherDisplay:10.37,2013-01-15 10:22:00,
2013-01-15 02:27:00,41.7,20.8,30.42,WSW,249,0.0,0.0,43,0.00,CLR,,0.00,0.0,WeatherDisplay:10.37,2013-01-15 10:27:00,
2013-01-15 02:32:00,41.6,21.3,30.42,WSW,249,0.0,0.0,44,0.00,CLR,,0.00,0.0,WeatherDisplay:10.37,2013-01-15 10:32:00,
2013-01-15 02:37:00,41.3,21.5,30.42,WSW,250,0.0,0.0,45,0.00,CLR,,0.00,0.0,WeatherDisplay:10.37,2013-01-15 10:37:00,
2013-01-15 02:42:00,41.1,21.3,30.42,WSW,249,0.0,0.0,45,0.00,CLR,,0.00,0.0,WeatherDisplay:10.37,2013-01-15 10:42:00,
2013-01-15 02:47:00,40.9,22.7,30.42,WSW,249,0.4,1.1,48,0.00,CLR,,0.00,0.0,WeatherDisplay:10.37,2013-01-15 10:47:00,
2013-01-15 02:52:00,40.6,22.4,30.43,WSW,249,1.6,2.3,48,0.00,CLR,,0.00,0.0,WeatherDisplay:10.37,2013-01-15 10:52:00,
2013-01-15 02:57:00,40.4,23.7,30.42,WSW,249,1.9,3.0,51,0.00,CLR,,0.00,0.0,WeatherDisplay:10.37,2013-01-15 10:57:00,
2013-01-15 03:02:00,40.2,25.3,30.42,WSW,249,1.2,2.3,55,0.00,CLR,,0.00,0.0,WeatherDisplay:10.37,2013-01-15 11:02:00,
2013-01-15 03:07:00,39.9,25.0,30.42,WSW,249,1.6,2.3,55,0.00,CLR,,0.00,0.0,WeatherDisplay:10.37,2013-01-15 11:07:00,
2013-01-15 03:12:00,39.7,25.7,30.42,WSW,249,1.9,2.3,57,0.00,CLR,,0.00,0.0,WeatherDisplay:10.37,2013-01-15 11:12:00,
2013-01-15 03:17:00,39.5,28.7,30.42,WSW,249,0.8,2.3,65,0.00,CLR,,0.00,0.0,WeatherDisplay:10.37,2013-01-15 11:17:00,
2013-01-15 03:22:00,39.3,28.1,30.42,WSW,249,0.0,0.0,64,0.00,CLR,,0.00,0.0,WeatherDisplay:10.37,2013-01-15 11:22:00,
2013-01-15 03:27:00,39.3,28.5,30.42,WSW,249,0.0,1.1,65,0.00,CLR,,0.00,0.0,WeatherDisplay:10.37,2013-01-15 11:27:00,
2013-01-15 03:32:00,39.3,29.6,30.42,WSW,249,0.0,0.0,68,0.00,CLR,,0.00,0.0,WeatherDisplay:10.37,2013-01-15 11:32:00,
2013-01-15 03:37:00,39.5,29.8,30.42,WSW,249,0.0,0.0,68,0.00,CLR,,0.00,0.0,WeatherDisplay:10.37,2013-01-15 11:37:00,
2013-01-15 03:42:00,39.5,29.8,30.42,WSW,249,0.0,1.1,68,0.00,CLR,,0.00,0.0,WeatherDisplay:10.37,2013-01-15 11:42:00,
2013-01-15 03:47:00,39.4,30.1,30.42,WSW,249,0.0,0.0,69,0.00,CLR,,0.00,0.0,WeatherDisplay:10.37,2013-01-15 11:47:00,
2013-01-15 03:52:00,39.3,30.0,30.42,WSW,250,0.0,0.0,69,0.00,CLR,,0.00,0.0,WeatherDisplay:10.37,2013-01-15 11:52:00,
2013-01-15 03:57:00,39.2,29.9,30.42,WSW,249,0.0,0.0,69,0.00,CLR,,0.00,0.0,WeatherDisplay:10.37,2013-01-15 11:57:00,
2013-01-15 04:02:00,39.1,30.1,30.42,WSW,249,0.0,0.0,70,0.00,CLR,,0.00,0.0,WeatherDisplay:10.37,2013-01-15 12:02:00,
2013-01-15 04:07:00,38.9,30.3,30.42,WSW,250,0.0,0.0,71,0.00,CLR,,0.00,0.0,WeatherDisplay:10.37,2013-01-15 12:07:00,
2013-01-15 04:12:00,39.1,30.1,30.42,WSW,249,0.0,0.0,70,0.00,CLR,,0.00,0.0,WeatherDisplay:10.37,2013-01-15 12:12:00,
2013-01-15 04:17:00,39.6,30.6,30.42,WSW,249,0.0,0.0,70,0.00,CLR,,0.00,0.0,WeatherDisplay:10.37,2013-01-15 12:17:00,
2013-01-15 04:22:00,40.5,23.3,30.42,WSW,249,1.5,2.3,50,0.00,CLR,,0.00,0.0,WeatherDisplay:10.37,2013-01-15 12:22:00,
2013-01-15 04:27:00,41.2,22.5,30.42,SSW,207,2.4,3.5,47,0.00,CLR,,0.00,0.0,WeatherDisplay:10.37,2013-01-15 12:27:00,
2013-01-15 04:32:00,41.6,21.8,30.41,SSW,207,1.2,2.3,45,0.00,CLR,,0.00,0.0,WeatherDisplay:10.37,2013-01-15 12:32:00,
2013-01-15 04:37:00,41.9,21.0,30.41,SSW,207,0.0,0.0,43,0.00,CLR,,0.00,0.0,WeatherDisplay:10.37,2013-01-15 12:37:00,
2013-01-15 04:42:00,42.2,21.8,30.41,SSW,207,0.0,0.0,44,0.00,CLR,,0.00,0.0,WeatherDisplay:10.37,2013-01-15 12:42:00,
2013-01-15 04:47:00,42.3,23.5,30.41,SSW,207,0.0,0.0,47,0.00,CLR,,0.00,0.0,WeatherDisplay:10.37,2013-01-15 12:47:00,
2013-01-15 04:52:00,42.2,21.8,30.41,SSW,206,1.7,2.3,44,0.00,CLR,,0.00,0.0,WeatherDisplay:10.37,2013-01-15 12:52:00,
2013-01-15 04:57:00,42.0,22.2,30.41,SSW,207,0.2,1.1,45,0.00,CLR,,0.00,0.0,WeatherDisplay:10.37,2013-01-15 12:57:00,
2013-01-15 05:02:00,41.8,23.0,30.41,SSW,207,0.0,0.0,47,0.00,CLR,,0.00,0.0,WeatherDisplay:10.37,2013-01-15 13:02:00,
2013-01-15 05:07:00,41.6,23.8,30.41,SSW,206,0.0,0.0,49,0.00,CLR,,0.00,0.0,WeatherDisplay:10.37,2013-01-15 13:07:00,
2013-01-15 05:12:00,41.3,24.0,30.41,SSW,206,0.0,0.0,50,0.00,CLR,,0.00,0.0,WeatherDisplay:10.37,2013-01-15 13:12:00,
2013-01-15 05:17:00,40.9,24.1,30.41,SSW,207,0.0,0.0,51,0.00,CLR,,0.00,0.0,WeatherDisplay:10.37,2013-01-15 13:17:00,
2013-01-15 05:22:00,40.7,24.0,30.41,SSW,206,0.0,0.0,51,0.00,CLR,,0.00,0.0,WeatherDisplay:10.37,2013-01-15 13:22:00,
2013-01-15 05:27:00,40.4,24.6,30.41,SSW,207,0.0,0.0,53,0.00,CLR,,0.00,0.0,WeatherDisplay:10.37,2013-01-15 13:27:00,
2013-01-15 05:32:00,40.2,24.4,30.41,SSW,206,0.0,0.0,53,0.00,CLR,,0.00,0.0,WeatherDisplay:10.37,2013-01-15 13:32:00,
2013-01-15 05:37:00,39.9,25.9,30.41,SSW,206,0.0,0.0,57,0.00,CLR,,0.00,0.0,WeatherDisplay:10.37,2013-01-15 13:37:00,
2013-01-15 05:42:00,39.8,26.2,30.41,SSW,207,0.0,0.0,58,0.00,CLR,,0.00,0.0,WeatherDisplay:10.37,2013-01-15 13:42:00,
2013-01-15 05:47:00,39.6,26.8,30.42,SSW,206,0.0,0.0,60,0.00,CLR,,0.00,0.0,WeatherDisplay:10.37,2013-01-15 13:47:00,
2013-01-15 05:52:00,39.3,26.6,30.42,SSW,206,0.0,0.0,60,0.00,CLR,,0.00,0.0,WeatherDisplay:10.37,2013-01-15 13:52:00,
2013-01-15 05:57:00,39.3,27.4,30.42,SSW,207,0.0,0.0,62,0.00,CLR,,0.00,0.0,WeatherDisplay:10.37,2013-01-15 13:57:00,
2013-01-15 06:02:00,39.2,24.8,30.42,SSW,207,0.0,0.0,56,0.00,CLR,,0.00,0.0,WeatherDisplay:10.37,2013-01-15 14:02:00,
2013-01-15 06:07:00,39.2,23.9,30.42,SSW,207,0.0,0.0,54,0.00,CLR,,0.00,0.0,WeatherDisplay:10.37,2013-01-15 14:07:00,
2013-01-15 06:12:00,39.1,23.4,30.42,SSW,206,0.0,0.0,53,0.00,CLR,,0.00,0.0,WeatherDisplay:10.37,2013-01-15 14:12:00,
2013-01-15 06:17:00,39.1,25.6,30.42,SSW,207,0.0,0.0,58,0.00,CLR,,0.00,0.0,WeatherDisplay:10.37,2013-01-15 14:17:00,
2013-01-15 06:22:00,39.0,27.1,30.42,SSW,207,0.0,0.0,62,0.00,CLR,,0.00,0.0,WeatherDisplay:10.37,2013-01-15 14:22:00,
2013-01-15 06:27:00,38.9,26.6,30.42,SSW,206,0.0,0.0,61,0.00,CLR,,0.00,0.0,WeatherDisplay:10.37,2013-01-15 14:27:00,
2013-01-15 06:32:00,38.8,26.9,30.42,SSW,206,0.0,0.0,62,0.00,CLR,,0.00,0.0,WeatherDisplay:10.37,2013-01-15 14:32:00,
2013-01-15 06:37:00,38.6,27.1,30.42,SSW,207,0.0,0.0,63,0.00,CLR,,0.00,0.0,WeatherDisplay:10.37,2013-01-15 14:37:00,
2013-01-15 06:42:00,38.4,26.1,30.42,SSW,206,0.0,0.0,61,0.00,CLR,,0.00,0.0,WeatherDisplay:10.37,2013-01-15 14:42:00,
2013-01-15 06:47:00,38.3,26.4,30.42,SSW,206,0.0,0.0,62,0.00,CLR,,0.00,0.0,WeatherDisplay:10.37,2013-01-15 14:47:00,
2013-01-15 06:52:00,38.2,26.3,30.42,SSW,207,0.0,0.0,62,0.00,CLR,,0.00,0.0,WeatherDisplay:10.37,2013-01-15 14:52:00,
2013-01-15 06:57:00,38.2,27.1,30.42,SSW,207,0.0,0.0,64,0.00,CLR,,0.00,0.0,WeatherDisplay:10.37,2013-01-15 14:57:00,
2013-01-15 07:02:00,38.5,28.5,30.42,SSW,207,0.0,0.0,67,0.00,CLR,,0.00,0.0,WeatherDisplay:10.37,2013-01-15 15:02:00,
2013-01-15 07:07:00,38.6,28.9,30.43,SSW,206,0.0,0.0,68,0.00,CLR,,0.00,0.0,WeatherDisplay:10.37,2013-01-15 15:07:00,
2013-01-15 07:12:00,38.6,28.9,30.43,SSW,206,0.0,0.0,68,0.00,CLR,,0.00,0.0,WeatherDisplay:10.37,2013-01-15 15:12:00,
2013-01-15 07:17:00,38.5,29.2,30.43,SSW,207,0.0,0.0,69,0.00,CLR,,0.00,5.0,WeatherDisplay:10.37,2013-01-15 15:17:00,
2013-01-15 07:22:00,38.4,29.1,30.43,SSW,207,0.0,0.0,69,0.00,CLR,,0.00,5.0,WeatherDisplay:10.37,2013-01-15 15:22:00,
2013-01-15 07:27:00,38.6,30.0,30.43,SSW,206,0.0,0.0,71,0.00,CLR,,0.00,9.0,WeatherDisplay:10.37,2013-01-15 15:27:00,
2013-01-15 07:32:00,38.7,30.4,30.43,SSW,207,0.0,0.0,72,0.00,CLR,,0.00,12.0,WeatherDisplay:10.37,2013-01-15 15:32:00,
2013-01-15 07:37:00,38.6,30.0,30.43,SSW,207,0.0,0.0,71,0.00,CLR,,0.00,18.0,WeatherDisplay:10.37,2013-01-15 15:37:00,
2013-01-15 07:42:00,38.5,29.2,30.44,SSW,206,0.0,0.0,69,0.00,CLR,,0.00,21.0,WeatherDisplay:10.37,2013-01-15 15:42:00,
2013-01-15 07:47:00,38.4,29.5,30.44,SSW,207,0.0,0.0,70,0.00,CLR,,0.00,26.0,WeatherDisplay:10.37,2013-01-15 15:47:00,
2013-01-15 07:52:00,38.4,28.8,30.44,SSW,207,0.0,0.0,68,0.00,CLR,,0.00,32.0,WeatherDisplay:10.37,2013-01-15 15:52:00,
2013-01-15 07:57:00,38.4,28.8,30.44,SSW,207,0.0,0.0,68,0.00,CLR,,0.00,37.0,WeatherDisplay:10.37,2013-01-15 15:57:00,
2013-01-15 08:02:00,38.6,29.3,30.44,SSW,207,0.1,1.1,69,0.00,CLR,,0.00,47.0,WeatherDisplay:10.37,2013-01-15 16:02:00,
2013-01-15 08:07:00,38.8,28.8,30.45,SSW,208,1.0,1.1,67,0.00,CLR,,0.00,74.0,WeatherDisplay:10.37,2013-01-15 16:07:00,
2013-01-15 08:12:00,39.2,28.0,30.45,SSW,208,1.3,2.3,64,0.00,CLR,,0.00,91.0,WeatherDisplay:10.37,2013-01-15 16:12:00,
2013-01-15 08:17:00,39.7,26.9,30.45,SSW,209,1.0,2.3,60,0.00,CLR,,0.00,90.0,WeatherDisplay:10.37,2013-01-15 16:17:00,
2013-01-15 08:22:00,40.1,26.5,30.45,SSW,208,1.1,2.0,58,0.00,CLR,,0.00,118.0,WeatherDisplay:10.37,2013-01-15 16:22:00,
2013-01-15 08:27:00,40.5,27.7,30.45,SSW,209,0.8,1.1,60,0.00,CLR,,0.00,116.0,WeatherDisplay:10.37,2013-01-15 16:27:00,
2013-01-15 08:32:00,41.1,28.7,30.46,SSW,209,1.2,2.3,61,0.00,CLR,,0.00,141.0,WeatherDisplay:10.37,2013-01-15 16:32:00,
2013-01-15 08:37:00,41.6,29.1,30.46,SSW,208,0.9,1.1,61,0.00,CLR,,0.00,149.0,WeatherDisplay:10.37,2013-01-15 16:37:00,
2013-01-15 08:42:00,42.1,29.6,30.46,SSW,209,0.5,1.1,61,0.00,CLR,,0.00,165.0,WeatherDisplay:10.37,2013-01-15 16:42:00,
2013-01-15 08:47:00,43.0,30.9,30.46,SSW,207,0.0,0.0,62,0.00,CLR,,0.00,190.0,WeatherDisplay:10.37,2013-01-15 16:47:00,
2013-01-15 08:52:00,43.6,30.6,30.46,SSW,208,0.0,0.0,60,0.00,CLR,,0.00,200.0,WeatherDisplay:10.37,2013-01-15 16:52:00,
2013-01-15 08:57:00,44.7,30.8,30.46,SSW,208,0.0,0.0,58,0.00,CLR,,0.00,225.0,WeatherDisplay:10.37,2013-01-15 16:57:00,
2013-01-15 09:02:00,45.8,28.7,30.46,SSW,208,0.0,0.0,51,0.00,CLR,,0.00,216.0,WeatherDisplay:10.37,2013-01-15 17:02:00,
2013-01-15 09:07:00,46.9,29.7,30.46,SSW,209,0.0,0.0,51,0.00,CLR,,0.00,241.0,WeatherDisplay:10.37,2013-01-15 17:07:00,
2013-01-15 09:12:00,47.8,28.5,30.46,SSW,208,0.0,0.0,47,0.00,CLR,,0.00,262.0,WeatherDisplay:10.37,2013-01-15 17:12:00,
2013-01-15 09:17:00,48.8,29.4,30.47,SSW,208,0.0,0.0,47,0.00,CLR,,0.00,283.0,WeatherDisplay:10.37,2013-01-15 17:17:00,
2013-01-15 09:22:00,49.6,28.0,30.47,SSW,209,0.2,1.1,43,0.00,CLR,,0.00,292.0,WeatherDisplay:10.37,2013-01-15 17:22:00,
2013-01-15 09:27:00,50.1,29.6,30.47,SSW,207,0.0,0.0,45,0.00,CLR,,0.00,315.0,WeatherDisplay:10.37,2013-01-15 17:27:00,
2013-01-15 09:32:00,50.5,31.0,30.47,SSW,208,0.0,0.0,47,0.00,CLR,,0.00,297.0,WeatherDisplay:10.37,2013-01-15 17:32:00,
2013-01-15 09:37:00,51.1,28.8,30.47,SSW,208,1.9,3.5,42,0.00,CLR,,0.00,283.0,WeatherDisplay:10.37,2013-01-15 17:37:00,
2013-01-15 09:42:00,51.2,29.4,30.47,SSW,209,1.9,3.5,43,0.00,CLR,,0.00,295.0,WeatherDisplay:10.37,2013-01-15 17:42:00,
2013-01-15 09:47:00,51.1,27.6,30.47,SW,216,2.9,3.5,40,0.00,CLR,,0.00,364.0,WeatherDisplay:10.37,2013-01-15 17:47:00,
2013-01-15 09:52:00,51.2,27.7,30.47,SW,228,2.6,3.5,40,0.00,CLR,,0.00,387.0,WeatherDisplay:10.37,2013-01-15 17:52:00,
2013-01-15 09:57:00,51.6,31.5,30.47,North,349,2.4,2.4,46,0.00,CLR,,0.00,390.0,WeatherDisplay:10.37,2013-01-15 17:57:00,
2013-01-15 10:02:00,52.0,31.3,30.47,NNE,27,2.4,3.5,45,0.00,CLR,,0.00,378.0,WeatherDisplay:10.37,2013-01-15 18:02:00,
2013-01-15 10:07:00,52.4,32.2,30.47,NNE,22,0.5,1.1,46,0.00,CLR,,0.00,427.0,WeatherDisplay:10.37,2013-01-15 18:07:00,
2013-01-15 10:12:00,52.8,30.9,30.47,NNE,22,0.6,2.3,43,0.00,CLR,,0.00,443.0,WeatherDisplay:10.37,2013-01-15 18:12:00,
2013-01-15 10:17:00,53.3,30.2,30.47,North,11,0.7,2.0,41,0.00,CLR,,0.00,452.0,WeatherDisplay:10.37,2013-01-15 18:17:00,
2013-01-15 10:22:00,53.5,28.5,30.47,NNW,339,1.9,3.5,38,0.00,CLR,,0.00,475.0,WeatherDisplay:10.37,2013-01-15 18:22:00,
2013-01-15 10:27:00,53.6,30.4,30.47,North,355,0.7,3.5,41,0.00,CLR,,0.00,487.0,WeatherDisplay:10.37,2013-01-15 18:27:00,
2013-01-15 10:32:00,54.0,28.3,30.47,North,7,1.3,2.3,37,0.00,CLR,,0.00,497.0,WeatherDisplay:10.37,2013-01-15 18:32:00,
2013-01-15 10:37:00,54.3,29.2,30.46,NW,311,2.3,3.5,38,0.00,CLR,,0.00,503.0,WeatherDisplay:10.37,2013-01-15 18:37:00,
2013-01-15 10:42:00,54.5,29.4,30.46,North,7,3.2,3.5,38,0.00,CLR,,0.00,473.0,WeatherDisplay:10.37,2013-01-15 18:42:00,
2013-01-15 10:47:00,54.6,27.5,30.47,NNE,18,2.5,3.5,35,0.00,CLR,,0.00,519.0,WeatherDisplay:10.37,2013-01-15 18:47:00,
2013-01-15 10:52:00,54.6,28.2,30.47,North,357,0.6,2.3,36,0.00,CLR,,0.00,480.0,WeatherDisplay:10.37,2013-01-15 18:52:00,
2013-01-15 10:57:00,54.8,29.0,30.47,NNW,339,0.6,2.3,37,0.00,CLR,,0.00,531.0,WeatherDisplay:10.37,2013-01-15 18:57:00,
2013-01-15 11:02:00,55.1,30.6,30.46,NW,323,1.6,3.5,39,0.00,CLR,,0.00,552.0,WeatherDisplay:10.37,2013-01-15 19:02:00,
2013-01-15 11:07:00,54.9,28.4,30.46,North,353,1.6,3.5,36,0.00,CLR,,0.00,540.0,WeatherDisplay:10.37,2013-01-15 19:07:00,
2013-01-15 11:12:00,54.9,29.1,30.46,North,354,2.4,4.0,37,0.00,CLR,,0.00,504.0,WeatherDisplay:10.37,2013-01-15 19:12:00,
2013-01-15 11:17:00,55.2,28.7,30.46,North,350,1.4,2.3,36,0.00,CLR,,0.00,420.0,WeatherDisplay:10.37,2013-01-15 19:17:00,
2013-01-15 11:22:00,55.0,25.6,30.45,North,350,1.0,3.5,32,0.00,CLR,,0.00,545.0,WeatherDisplay:10.37,2013-01-15 19:22:00,
2013-01-15 11:27:00,54.8,26.9,30.45,NNW,341,1.1,2.3,34,0.00,CLR,,0.00,545.0,WeatherDisplay:10.37,2013-01-15 19:27:00,
2013-01-15 11:32:00,55.0,26.4,30.45,NNW,341,1.9,3.5,33,0.00,CLR,,0.00,564.0,WeatherDisplay:10.37,2013-01-15 19:32:00,
2013-01-15 11:37:00,55.3,27.4,30.45,NNW,330,2.5,3.5,34,0.00,CLR,,0.00,566.0,WeatherDisplay:10.37,2013-01-15 19:37:00,
2013-01-15 11:42:00,55.5,26.8,30.45,NW,324,1.1,3.5,33,0.00,CLR,,0.00,559.0,WeatherDisplay:10.37,2013-01-15 19:42:00,
2013-01-15 11:47:00,56.0,28.0,30.44,North,9,2.1,3.5,34,0.00,CLR,,0.00,573.0,WeatherDisplay:10.37,2013-01-15 19:47:00,
2013-01-15 11:52:00,56.4,28.3,30.44,NNW,328,0.9,2.3,34,0.00,CLR,,0.00,578.0,WeatherDisplay:10.37,2013-01-15 19:52:00,
2013-01-15 11:57:00,56.7,27.9,30.44,NNW,343,1.3,3.5,33,0.00,CLR,,0.00,580.0,WeatherDisplay:10.37,2013-01-15 19:57:00,
2013-01-15 12:02:00,56.7,27.9,30.44,NW,325,1.4,2.3,33,0.00,CLR,,0.00,582.0,WeatherDisplay:10.37,2013-01-15 20:02:00,
2013-01-15 12:07:00,56.9,28.8,30.43,North,357,2.5,3.5,34,0.00,CLR,,0.00,580.0,WeatherDisplay:10.37,2013-01-15 20:07:00,
2013-01-15 12:12:00,57.1,27.5,30.43,NNE,15,1.6,4.0,32,0.00,CLR,,0.00,568.0,WeatherDisplay:10.37,2013-01-15 20:12:00,
2013-01-15 12:17:00,57.2,28.3,30.43,North,355,1.3,3.5,33,0.00,CLR,,0.00,571.0,WeatherDisplay:10.37,2013-01-15 20:17:00,
2013-01-15 12:22:00,57.4,28.5,30.43,NNW,330,2.5,3.0,33,0.00,CLR,,0.00,585.0,WeatherDisplay:10.37,2013-01-15 20:22:00,
2013-01-15 12:27:00,57.6,29.4,30.42,North,349,1.4,3.5,34,0.00,CLR,,0.00,585.0,WeatherDisplay:10.37,2013-01-15 20:27:00,
2013-01-15 12:32:00,57.7,28.0,30.42,North,353,2.3,4.6,32,0.00,CLR,,0.00,587.0,WeatherDisplay:10.37,2013-01-15 20:32:00,
2013-01-15 12:37:00,57.8,28.1,30.42,NE,38,1.2,4.6,32,0.00,CLR,,0.00,589.0,WeatherDisplay:10.37,2013-01-15 20:37:00,
2013-01-15 12:42:00,57.7,28.8,30.42,North,354,2.1,3.5,33,0.00,CLR,,0.00,594.0,WeatherDisplay:10.37,2013-01-15 20:42:00,
2013-01-15 12:47:00,57.7,28.8,30.42,North,3,1.6,3.5,33,0.00,CLR,,0.00,580.0,WeatherDisplay:10.37,2013-01-15 20:47:00,
2013-01-15 12:52:00,57.9,28.2,30.42,NNW,336,2.5,3.5,32,0.00,CLR,,0.00,557.0,WeatherDisplay:10.37,2013-01-15 20:52:00,
2013-01-15 12:57:00,57.9,28.9,30.42,NW,325,0.4,4.6,33,0.00,CLR,,0.00,501.0,WeatherDisplay:10.37,2013-01-15 20:57:00,
2013-01-15 13:02:00,58.1,29.8,30.42,NNW,331,1.4,2.3,34,0.00,CLR,,0.00,468.0,WeatherDisplay:10.37,2013-01-15 21:02:00,
2013-01-15 13:07:00,58.1,28.4,30.42,NNW,332,1.1,2.3,32,0.00,CLR,,0.00,492.0,WeatherDisplay:10.37,2013-01-15 21:07:00,
2013-01-15 13:12:00,58.2,28.5,30.41,NNE,26,2.1,3.5,32,0.00,CLR,,0.00,482.0,WeatherDisplay:10.37,2013-01-15 21:12:00,
2013-01-15 13:17:00,58.2,28.5,30.41,NNW,336,0.9,3.5,32,0.00,CLR,,0.00,494.0,WeatherDisplay:10.37,2013-01-15 21:17:00,
2013-01-15 13:22:00,58.3,28.5,30.41,North,5,2.3,4.0,32,0.00,CLR,,0.00,489.0,WeatherDisplay:10.37,2013-01-15 21:22:00,
2013-01-15 13:27:00,58.2,29.2,30.41,North,6,1.9,3.5,33,0.00,CLR,,0.00,487.0,WeatherDisplay:10.37,2013-01-15 21:27:00,
2013-01-15 13:32:00,58.1,29.1,30.41,North,10,2.7,3.5,33,0.00,CLR,,0.00,482.0,WeatherDisplay:10.37,2013-01-15 21:32:00,
2013-01-15 13:37:00,58.0,29.0,30.41,NNW,334,2.8,3.5,33,0.00,CLR,,0.00,468.0,WeatherDisplay:10.37,2013-01-15 21:37:00,
2013-01-15 13:42:00,57.9,29.7,30.41,NNW,340,1.0,3.5,34,0.00,CLR,,0.00,455.0,WeatherDisplay:10.37,2013-01-15 21:42:00,
2013-01-15 13:47:00,57.6,29.4,30.41,North,10,2.6,4.6,34,0.00,CLR,,0.00,439.0,WeatherDisplay:10.37,2013-01-15 21:47:00,
2013-01-15 13:52:00,57.1,29.0,30.41,NNE,25,4.0,5.8,34,0.00,CLR,,0.00,439.0,WeatherDisplay:10.37,2013-01-15 21:52:00,
2013-01-15 13:57:00,56.4,29.1,30.41,North,1,3.0,3.5,35,0.00,CLR,,0.00,439.0,WeatherDisplay:10.37,2013-01-15 21:57:00,
2013-01-15 14:02:00,56.2,28.9,30.41,NNW,336,1.7,3.5,35,0.00,CLR,,0.00,425.0,WeatherDisplay:10.37,2013-01-15 22:02:00,
2013-01-15 14:07:00,56.2,28.9,30.41,North,352,3.1,4.6,35,0.00,CLR,,0.00,438.0,WeatherDisplay:10.37,2013-01-15 22:07:00,
2013-01-15 14:12:00,56.2,28.9,30.41,NNW,338,2.5,3.5,35,0.00,CLR,,0.00,443.0,WeatherDisplay:10.37,2013-01-15 22:12:00,
2013-01-15 14:17:00,56.2,28.9,30.41,North,3,1.4,3.5,35,0.00,CLR,,0.00,439.0,WeatherDisplay:10.37,2013-01-15 22:17:00,
2013-01-15 14:22:00,56.4,29.1,30.40,NNW,336,1.2,3.5,35,0.00,CLR,,0.00,420.0,WeatherDisplay:10.37,2013-01-15 22:22:00,
2013-01-15 14:27:00,56.6,28.5,30.40,NNW,328,3.2,4.6,34,0.00,CLR,,0.00,387.0,WeatherDisplay:10.37,2013-01-15 22:27:00,
2013-01-15 14:32:00,56.6,28.5,30.40,NNW,327,3.7,4.6,34,0.00,CLR,,0.00,397.0,WeatherDisplay:10.37,2013-01-15 22:32:00,
2013-01-15 14:37:00,56.6,28.5,30.40,NW,308,2.3,3.5,34,0.00,CLR,,0.00,371.0,WeatherDisplay:10.37,2013-01-15 22:37:00,
2013-01-15 14:42:00,56.6,28.5,30.40,NW,320,3.1,3.5,34,0.00,CLR,,0.00,369.0,WeatherDisplay:10.37,2013-01-15 22:42:00,
2013-01-15 14:47:00,56.6,28.5,30.40,NNE,19,1.4,5.0,34,0.00,CLR,,0.00,348.0,WeatherDisplay:10.37,2013-01-15 22:47:00,
2013-01-15 14:52:00,56.5,27.7,30.40,NNW,330,0.8,3.5,33,0.00,CLR,,0.00,334.0,WeatherDisplay:10.37,2013-01-15 22:52:00,
2013-01-15 14:57:00,56.4,27.6,30.40,NNE,16,1.6,3.5,33,0.00,CLR,,0.00,329.0,WeatherDisplay:10.37,2013-01-15 22:57:00,
2013-01-15 15:02:00,56.4,28.3,30.40,NNW,341,0.1,2.3,34,0.00,CLR,,0.00,316.0,WeatherDisplay:10.37,2013-01-15 23:02:00,
2013-01-15 15:07:00,56.4,27.6,30.41,NNW,336,1.0,3.0,33,0.00,CLR,,0.00,309.0,WeatherDisplay:10.37,2013-01-15 23:07:00,
2013-01-15 15:12:00,56.5,27.7,30.41,NNW,338,1.0,2.3,33,0.00,CLR,,0.00,302.0,WeatherDisplay:10.37,2013-01-15 23:12:00,
2013-01-15 15:17:00,56.4,26.9,30.41,NNW,337,0.5,2.3,32,0.00,CLR,,0.00,288.0,WeatherDisplay:10.37,2013-01-15 23:17:00,
2013-01-15 15:22:00,56.3,28.3,30.41,North,1,0.1,1.1,34,0.00,CLR,,0.00,278.0,WeatherDisplay:10.37,2013-01-15 23:22:00,
2013-01-15 15:27:00,56.2,28.2,30.41,NNW,342,3.2,3.5,34,0.00,CLR,,0.00,265.0,WeatherDisplay:10.37,2013-01-15 23:27:00,
2013-01-15 15:32:00,56.0,28.0,30.41,North,5,1.5,3.0,34,0.00,CLR,,0.00,251.0,WeatherDisplay:10.37,2013-01-15 23:32:00,
2013-01-15 15:37:00,56.2,28.2,30.41,NNW,343,0.7,1.1,34,0.00,CLR,,0.00,237.0,WeatherDisplay:10.37,2013-01-15 23:37:00,
2013-01-15 15:42:00,55.8,27.8,30.41,NNE,28,2.1,3.5,34,0.00,CLR,,0.00,218.0,WeatherDisplay:10.37,2013-01-15 23:42:00,
2013-01-15 15:47:00,55.4,27.5,30.41,North,2,1.0,3.0,34,0.00,CLR,,0.00,200.0,WeatherDisplay:10.37,2013-01-15 23:47:00,
2013-01-15 15:52:00,54.9,27.0,30.41,NNE,26,2.9,3.5,34,0.00,CLR,,0.00,183.0,WeatherDisplay:10.37,2013-01-15 23:52:00,
2013-01-15 15:57:00,54.6,26.8,30.41,NNE,33,3.2,3.5,34,0.00,CLR,,0.00,167.0,WeatherDisplay:10.37,2013-01-15 23:57:00,
2013-01-15 16:02:00,54.3,27.2,30.41,NNE,31,2.2,3.5,35,0.00,CLR,,0.00,146.0,WeatherDisplay:10.37,2013-01-16 00:02:00,
2013-01-15 16:07:00,54.0,26.9,30.41,NNE,33,2.6,3.5,35,0.00,CLR,,0.00,104.0,WeatherDisplay:10.37,2013-01-16 00:07:00,
2013-01-15 16:12:00,53.6,25.9,30.41,NNE,28,3.8,5.0,34,0.00,CLR,,0.00,107.0,WeatherDisplay:10.37,2013-01-16 00:12:00,
2013-01-15 16:17:00,53.3,26.3,30.41,NE,37,1.6,4.0,35,0.00,CLR,,0.00,95.0,WeatherDisplay:10.37,2013-01-16 00:17:00,
2013-01-15 16:22:00,53.0,26.7,30.41,NE,34,2.6,3.5,36,0.00,CLR,,0.00,79.0,WeatherDisplay:10.37,2013-01-16 00:22:00,
2013-01-15 16:27:00,52.9,26.6,30.41,NNE,30,2.3,2.3,36,0.00,CLR,,0.00,65.0,WeatherDisplay:10.37,2013-01-16 00:27:00,
2013-01-15 16:32:00,52.6,27.0,30.41,NE,39,2.4,3.5,37,0.00,CLR,,0.00,54.0,WeatherDisplay:10.37,2013-01-16 00:32:00,
2013-01-15 16:37:00,52.5,26.9,30.41,NE,39,0.0,0.0,37,0.00,CLR,,0.00,28.0,WeatherDisplay:10.37,2013-01-16 00:37:00,
2013-01-15 16:42:00,52.4,26.9,30.41,NE,39,0.5,2.3,37,0.00,CLR,,0.00,21.0,WeatherDisplay:10.37,2013-01-16 00:42:00,
2013-01-15 16:47:00,51.9,27.1,30.41,NNE,28,1.5,2.3,38,0.00,CLR,,0.00,19.0,WeatherDisplay:10.37,2013-01-16 00:47:00,
2013-01-15 16:52:00,51.5,27.3,30.41,NNE,27,1.4,2.3,39,0.00,CLR,,0.00,16.0,WeatherDisplay:10.37,2013-01-16 00:52:00,
2013-01-15 16:57:00,51.2,26.4,30.41,NNE,28,0.5,1.1,38,0.00,CLR,,0.00,14.0,WeatherDisplay:10.37,2013-01-16 00:57:00,
2013-01-15 17:02:00,50.8,26.7,30.41,NNE,28,0.6,2.3,39,0.00,CLR,,0.00,12.0,WeatherDisplay:10.37,2013-01-16 01:02:00,
2013-01-15 17:07:00,50.4,27.0,30.41,NNE,28,0.0,0.0,40,0.00,CLR,,0.00,11.0,WeatherDisplay:10.37,2013-01-16 01:07:00,
2013-01-15 17:12:00,50.0,27.2,30.41,NNE,28,0.0,0.0,41,0.00,CLR,,0.00,7.0,WeatherDisplay:10.37,2013-01-16 01:12:00,
2013-01-15 17:17:00,49.5,26.7,30.41,NNE,28,0.6,1.1,41,0.00,CLR,,0.00,5.0,WeatherDisplay:10.37,2013-01-16 01:17:00,
2013-01-15 17:22:00,49.1,27.0,30.41,NNW,332,2.7,3.5,42,0.00,CLR,,0.00,0.0,WeatherDisplay:10.37,2013-01-16 01:22:00,
2013-01-15 17:27:00,48.6,27.1,30.40,NNW,333,2.5,3.5,43,0.00,CLR,,0.00,0.0,WeatherDisplay:10.37,2013-01-16 01:27:00,
2013-01-15 17:32:00,48.2,26.2,30.41,NW,304,2.4,3.5,42,0.00,CLR,,0.00,0.0,WeatherDisplay:10.37,2013-01-16 01:32:00,
2013-01-15 17:37:00,47.8,26.4,30.40,WNW,283,2.3,3.5,43,0.00,CLR,,0.00,0.0,WeatherDisplay:10.37,2013-01-16 01:37:00,
2013-01-15 17:42:00,47.5,27.2,30.41,WNW,297,3.3,4.6,45,0.00,CLR,,0.00,0.0,WeatherDisplay:10.37,2013-01-16 01:42:00,
2013-01-15 17:47:00,47.2,26.9,30.40,WNW,284,2.6,3.5,45,0.00,CLR,,0.00,0.0,WeatherDisplay:10.37,2013-01-16 01:47:00,
2013-01-15 17:52:00,46.9,27.2,30.41,WNW,284,0.6,2.3,46,0.00,CLR,,0.00,0.0,WeatherDisplay:10.37,2013-01-16 01:52:00,
2013-01-15 17:57:00,46.6,26.9,30.41,WNW,284,1.9,2.3,46,0.00,CLR,,0.00,0.0,WeatherDisplay:10.37,2013-01-16 01:57:00,
2013-01-15 18:02:00,46.3,27.2,30.41,WNW,283,2.3,3.5,47,0.00,CLR,,0.00,0.0,WeatherDisplay:10.37,2013-01-16 02:02:00,
2013-01-15 18:07:00,46.0,27.4,30.41,WNW,285,3.6,4.0,48,0.00,CLR,,0.00,0.0,WeatherDisplay:10.37,2013-01-16 02:07:00,
2013-01-15 18:12:00,45.8,27.2,30.41,WNW,282,5.7,7.0,48,0.00,CLR,,0.00,0.0,WeatherDisplay:10.37,2013-01-16 02:12:00,
2013-01-15 18:17:00,45.7,27.1,30.41,West,278,6.9,8.0,48,0.00,CLR,,0.00,0.0,WeatherDisplay:10.37,2013-01-16 02:17:00,
2013-01-15 18:22:00,45.6,27.5,30.41,West,279,7.9,9.2,49,0.00,CLR,,0.00,0.0,WeatherDisplay:10.37,2013-01-16 02:22:00,
2013-01-15 18:27:00,45.5,27.4,30.41,West,274,7.5,9.2,49,0.00,CLR,,0.00,0.0,WeatherDisplay:10.37,2013-01-16 02:27:00,
2013-01-15 18:32:00,45.4,27.3,30.41,West,269,7.2,8.1,49,0.00,CLR,,0.00,0.0,WeatherDisplay:10.37,2013-01-16 02:32:00,
2013-01-15 18:37:00,45.5,27.4,30.41,WNW,282,7.8,10.4,49,0.00,CLR,,0.00,0.0,WeatherDisplay:10.37,2013-01-16 02:37:00,
2013-01-15 18:42:00,45.4,27.8,30.41,West,277,8.1,11.5,50,0.00,CLR,,0.00,0.0,WeatherDisplay:10.37,2013-01-16 02:42:00,
2013-01-15 18:47:00,45.3,27.2,30.41,West,280,6.9,11.5,49,0.00,CLR,,0.00,0.0,WeatherDisplay:10.37,2013-01-16 02:47:00,
2013-01-15 18:52:00,45.2,27.2,30.40,NW,305,8.3,11.5,49,0.00,CLR,,0.00,0.0,WeatherDisplay:10.37,2013-01-16 02:52:00,
2013-01-15 18:57:00,45.1,27.6,30.41,West,266,9.0,9.2,50,0.00,CLR,,0.00,0.0,WeatherDisplay:10.37,2013-01-16 02:57:00,
2013-01-15 19:02:00,45.1,27.6,30.40,West,269,8.3,11.5,50,0.00,CLR,,0.00,0.0,WeatherDisplay:10.37,2013-01-16 03:02:00,
2013-01-15 19:07:00,45.0,27.5,30.41,West,272,7.4,10.4,50,0.00,CLR,,0.00,0.0,WeatherDisplay:10.37,2013-01-16 03:07:00,
2013-01-15 19:12:00,44.9,27.4,30.41,West,264,8.4,10.4,50,0.00,CLR,,0.00,0.0,WeatherDisplay:10.37,2013-01-16 03:12:00,
2013-01-15 19:17:00,44.8,27.3,30.41,West,278,7.2,9.2,50,0.00,CLR,,0.00,0.0,WeatherDisplay:10.37,2013-01-16 03:17:00,
2013-01-15 19:22:00,44.7,27.7,30.41,WNW,282,7.8,10.4,51,0.00,CLR,,0.00,0.0,WeatherDisplay:10.37,2013-01-16 03:22:00,
2013-01-15 19:27:00,44.6,28.5,30.41,West,277,7.4,11.5,53,0.00,CLR,,0.00,0.0,WeatherDisplay:10.37,2013-01-16 03:27:00,
2013-01-15 19:32:00,44.4,28.8,30.41,West,273,7.5,10.4,54,0.00,CLR,,0.00,0.0,WeatherDisplay:10.37,2013-01-16 03:32:00,
2013-01-15 19:37:00,44.3,29.1,30.41,WNW,287,8.6,11.5,55,0.00,CLR,,0.00,0.0,WeatherDisplay:10.37,2013-01-16 03:37:00,
2013-01-15 19:42:00,44.1,29.8,30.41,WNW,288,8.9,10.4,57,0.00,CLR,,0.00,0.0,WeatherDisplay:10.37,2013-01-16 03:42:00,
2013-01-15 19:47:00,43.8,30.0,30.41,West,280,7.7,10.4,58,0.00,CLR,,0.00,0.0,WeatherDisplay:10.37,2013-01-16 03:47:00,
2013-01-15 19:52:00,43.6,30.2,30.41,West,278,5.8,6.9,59,0.00,CLR,,0.00,0.0,WeatherDisplay:10.37,2013-01-16 03:52:00,
2013-01-15 19:57:00,43.4,30.0,30.41,WNW,286,6.2,8.1,59,0.00,CLR,,0.00,0.0,WeatherDisplay:10.37,2013-01-16 03:57:00,
2013-01-15 20:02:00,43.2,29.8,30.41,WNW,289,5.5,6.9,59,0.00,CLR,,0.00,0.0,WeatherDisplay:10.37,2013-01-16 04:02:00,
2013-01-15 20:07:00,43.0,30.1,30.41,West,266,2.7,5.8,60,0.00,CLR,,0.00,0.0,WeatherDisplay:10.37,2013-01-16 04:07:00,
2013-01-15 20:12:00,42.8,29.9,30.41,West,265,2.0,3.5,60,0.00,CLR,,0.00,0.0,WeatherDisplay:10.37,2013-01-16 04:12:00,
2013-01-15 20:17:00,42.5,29.6,30.41,WSW,256,1.8,3.5,60,0.00,CLR,,0.00,0.0,WeatherDisplay:10.37,2013-01-16 04:17:00,
2013-01-15 20:22:00,42.3,29.4,30.41,WSW,251,3.1,5.0,60,0.00,CLR,,0.00,0.0,WeatherDisplay:10.37,2013-01-16 04:22:00,
2013-01-15 20:27:00,42.2,29.3,30.41,WSW,237,2.8,4.6,60,0.00,CLR,,0.00,0.0,WeatherDisplay:10.37,2013-01-16 04:27:00,
2013-01-15 20:32:00,42.0,29.1,30.41,West,264,2.8,4.6,60,0.00,CLR,,0.00,0.0,WeatherDisplay:10.37,2013-01-16 04:32:00,
2013-01-15 20:37:00,41.9,29.0,30.41,WSW,243,3.3,5.0,60,0.00,CLR,,0.00,0.0,WeatherDisplay:10.37,2013-01-16 04:37:00,
2013-01-15 20:42:00,41.8,29.3,30.41,WSW,242,2.4,3.5,61,0.00,CLR,,0.00,0.0,WeatherDisplay:10.37,2013-01-16 04:42:00,
2013-01-15 20:47:00,41.7,29.2,30.41,WSW,239,2.7,3.5,61,0.00,CLR,,0.00,0.0,WeatherDisplay:10.37,2013-01-16 04:47:00,
2013-01-15 20:52:00,41.5,29.0,30.40,WSW,239,2.3,3.5,61,0.00,CLR,,0.00,0.0,WeatherDisplay:10.37,2013-01-16 04:52:00,
2013-01-15 20:57:00,41.4,28.5,30.40,WSW,246,3.0,4.6,60,0.00,CLR,,0.00,0.0,WeatherDisplay:10.37,2013-01-16 04:57:00,
2013-01-15 21:00:00,41.4,28.5,30.40,WSW,244,2.8,5.0,60,0.00,CLR,,0.00,0.0,WeatherDisplay:10.37,2013-01-16 05:00:00,
2013-01-15 21:03:00,41.3,28.9,30.40,WSW,239,3.0,5.0,61,0.00,CLR,,0.00,0.0,WeatherDisplay:10.37,2013-01-16 05:03:00,
2013-01-15 21:08:00,41.3,28.4,30.40,WSW,251,2.8,5.0,60,0.00,CLR,,0.00,0.0,WeatherDisplay:10.37,2013-01-16 05:08:00,
2013-01-15 21:13:00,41.3,28.4,30.40,WSW,249,2.7,5.0,60,0.00,CLR,,0.00,0.0,WeatherDisplay:10.37,2013-01-16 05:13:00,
2013-01-15 21:18:00,41.3,27.6,30.40,WSW,247,2.2,3.5,58,0.00,CLR,,0.00,0.0,WeatherDisplay:10.37,2013-01-16 05:18:00,
2013-01-15 21:23:00,41.3,27.6,30.40,WNW,284,2.6,3.5,58,0.00,CLR,,0.00,0.0,WeatherDisplay:10.37,2013-01-16 05:23:00,
2013-01-15 21:28:00,41.3,27.6,30.40,WSW,245,2.9,5.0,58,0.00,CLR,,0.00,0.0,WeatherDisplay:10.37,2013-01-16 05:28:00,
2013-01-15 21:33:00,41.3,27.6,30.40,WSW,247,4.0,5.8,58,0.00,CLR,,0.00,0.0,WeatherDisplay:10.37,2013-01-16 05:33:00,
2013-01-15 21:38:00,41.3,27.2,30.40,WSW,244,3.5,3.5,57,0.00,CLR,,0.00,0.0,WeatherDisplay:10.37,2013-01-16 05:38:00,
2013-01-15 21:43:00,41.3,27.2,30.40,West,270,3.5,7.0,57,0.00,CLR,,0.00,0.0,WeatherDisplay:10.37,2013-01-16 05:43:00,
2013-01-15 21:48:00,41.3,27.2,30.40,WNW,303,1.8,3.5,57,0.00,CLR,,0.00,0.0,WeatherDisplay:10.37,2013-01-16 05:48:00,
2013-01-15 21:53:00,41.4,26.9,30.40,WSW,251,1.5,3.5,56,0.00,CLR,,0.00,0.0,WeatherDisplay:10.37,2013-01-16 05:53:00,
2013-01-15 21:58:00,41.4,26.9,30.40,West,262,2.6,5.0,56,0.00,CLR,,0.00,0.0,WeatherDisplay:10.37,2013-01-16 05:58:00,
2013-01-15 22:03:00,41.4,26.9,30.40,WSW,255,3.7,4.6,56,0.00,CLR,,0.00,0.0,WeatherDisplay:10.37,2013-01-16 06:03:00,
2013-01-15 22:08:00,41.3,26.8,30.40,WSW,254,2.9,5.0,56,0.00,CLR,,0.00,0.0,WeatherDisplay:10.37,2013-01-16 06:08:00,
2013-01-15 22:13:00,41.2,27.1,30.40,West,264,2.5,3.5,57,0.00,CLR,,0.00,0.0,WeatherDisplay:10.37,2013-01-16 06:13:00,
2013-01-15 22:18:00,41.1,27.0,30.40,WSW,248,2.8,3.5,57,0.00,CLR,,0.00,0.0,WeatherDisplay:10.37,2013-01-16 06:18:00,
2013-01-15 22:23:00,41.0,26.9,30.40,WSW,243,2.3,3.5,57,0.00,CLR,,0.00,0.0,WeatherDisplay:10.37,2013-01-16 06:23:00,
2013-01-15 22:28:00,40.9,26.8,30.40,WSW,237,4.3,4.6,57,0.00,CLR,,0.00,0.0,WeatherDisplay:10.37,2013-01-16 06:28:00,
2013-01-15 22:33:00,40.8,26.7,30.40,WSW,247,4.1,5.0,57,0.00,CLR,,0.00,0.0,WeatherDisplay:10.37,2013-01-16 06:33:00,
2013-01-15 22:38:00,40.8,26.7,30.40,WSW,253,3.6,4.6,57,0.00,CLR,,0.00,0.0,WeatherDisplay:10.37,2013-01-16 06:38:00,
2013-01-15 22:43:00,40.8,26.7,30.40,West,267,3.2,4.6,57,0.00,CLR,,0.00,0.0,WeatherDisplay:10.37,2013-01-16 06:43:00,
2013-01-15 22:48:00,40.9,26.8,30.40,West,259,3.2,4.6,57,0.00,CLR,,0.00,0.0,WeatherDisplay:10.37,2013-01-16 06:48:00,
2013-01-15 22:53:00,41.0,27.3,30.40,West,270,4.4,6.9,58,0.00,CLR,,0.00,0.0,WeatherDisplay:10.37,2013-01-16 06:53:00,
2013-01-15 22:58:00,41.0,27.3,30.40,West,267,3.7,3.7,58,0.00,CLR,,0.00,0.0,WeatherDisplay:10.37,2013-01-16 06:58:00,
2013-01-15 23:03:00,41.1,27.0,30.40,West,259,4.8,6.0,57,0.00,CLR,,0.00,0.0,WeatherDisplay:10.37,2013-01-16 07:03:00,
2013-01-15 23:08:00,41.1,27.4,30.40,WSW,253,4.9,5.8,58,0.00,CLR,,0.00,0.0,WeatherDisplay:10.37,2013-01-16 07:08:00,
2013-01-15 23:13:00,41.1,27.4,30.40,WSW,253,5.6,6.9,58,0.00,CLR,,0.00,0.0,WeatherDisplay:10.37,2013-01-16 07:13:00,
2013-01-15 23:18:00,41.1,27.4,30.40,WSW,243,5.1,7.0,58,0.00,CLR,,0.00,0.0,WeatherDisplay:10.37,2013-01-16 07:18:00,
2013-01-15 23:23:00,41.1,27.9,30.40,SW,228,5.5,6.9,59,0.00,CLR,,0.00,0.0,WeatherDisplay:10.37,2013-01-16 07:23:00,
2013-01-15 23:28:00,41.0,27.8,30.40,West,259,3.6,5.8,59,0.00,CLR,,0.00,0.0,WeatherDisplay:10.37,2013-01-16 07:28:00,
2013-01-15 23:33:00,41.1,27.9,30.40,West,274,3.7,4.6,59,0.00,CLR,,0.00,0.0,WeatherDisplay:10.37,2013-01-16 07:33:00,
2013-01-15 23:38:00,41.1,27.9,30.40,West,280,3.7,4.6,59,0.00,CLR,,0.00,0.0,WeatherDisplay:10.37,2013-01-16 07:38:00,
2013-01-15 23:43:00,41.0,27.8,30.41,West,268,4.6,7.0,59,0.00,CLR,,0.00,0.0,WeatherDisplay:10.37,2013-01-16 07:43:00,
2013-01-15 23:48:00,41.0,28.2,30.41,West,274,6.6,8.0,60,0.00,CLR,,0.00,0.0,WeatherDisplay:10.37,2013-01-16 07:48:00,
2013-01-15 23:53:00,40.8,28.0,30.41,West,262,7.2,8.1,60,0.00,CLR,,0.00,0.0,WeatherDisplay:10.37,2013-01-16 07:53:00,
2013-01-15 23:58:00,40.7,28.3,30.41,West,264,5.1,8.1,61,0.00,CLR,,0.00,0.0,WeatherDisplay:10.37,2013-01-16 07:58:00,